createdAt,value
2022-12-13T07:54:48.456Z,979.4
2022-12-13T07:56:50.548Z,979.4
2022-12-13T07:58:52.227Z,979.3
2022-12-13T08:14:15.457Z,979.5
2022-12-13T08:16:26.853Z,979.3
2022-12-13T08:18:18.579Z,979.3
2022-12-13T08:20:21.937Z,979.2
2022-12-13T08:22:23.641Z,979.1
2022-12-13T08:26:26.161Z,979
2022-12-13T08:28:27.843Z,979
2022-12-13T08:30:29.924Z,979.1
2022-12-13T08:32:31.522Z,978.9
2022-12-13T08:34:33.610Z,978.8
2022-12-13T08:36:34.849Z,978.8
2022-12-13T08:38:36.632Z,978.9
2022-12-13T08:40:37.780Z,978.9
2022-12-13T08:42:39.710Z,978.9
2022-12-13T08:44:40.944Z,978.9
2022-12-13T08:46:42.495Z,978.8
2022-12-13T08:48:45.119Z,978.9
2022-12-13T08:50:46.732Z,978.9
2022-12-13T08:52:48.188Z,978.7
2022-12-13T08:54:49.339Z,978.8
2022-12-13T08:58:52.259Z,978.8
2022-12-13T09:00:53.713Z,978.9
2022-12-13T09:02:55.676Z,978.9
2022-12-13T09:04:57.236Z,978.8
2022-12-13T09:09:00.528Z,978.9
2022-12-13T09:11:10.757Z,978.8
2022-12-13T09:13:03.472Z,978.8
2022-12-13T09:15:04.934Z,978.9
2022-12-13T09:17:06.747Z,978.9
2022-12-13T09:19:24.882Z,978.8
2022-12-13T09:21:10.186Z,978.8
2022-12-13T09:23:13.747Z,978.9
2022-12-13T09:25:14.749Z,978.9
2022-12-13T09:27:27.408Z,978.9
2022-12-13T09:29:16.052Z,978.8
2022-12-13T09:31:17.754Z,978.7
2022-12-13T09:33:28.828Z,978.8
2022-12-13T09:35:20.330Z,978.8
2022-12-13T09:37:22.786Z,978.7
2022-12-13T09:39:23.384Z,978.7
2022-12-13T09:41:28.680Z,978.7
2022-12-13T09:43:31.535Z,978.7
2022-12-13T09:45:31.827Z,978.8
2022-12-13T09:47:35.107Z,978.9
2022-12-13T09:49:35.024Z,978.9
2022-12-13T09:51:41.379Z,978.7
2022-12-13T09:53:34.559Z,978.7
2022-12-13T09:57:37.275Z,978.8
2022-12-13T09:59:39.231Z,978.8
2022-12-13T10:01:40.581Z,978.7
2022-12-13T10:03:41.640Z,978.7
2022-12-13T10:05:43.294Z,978.8
2022-12-13T10:07:44.576Z,978.7
2022-12-13T10:09:46.332Z,978.6
2022-12-13T10:11:50.555Z,978.7
2022-12-13T10:13:49.731Z,978.7
2022-12-13T10:15:51.257Z,978.6
2022-12-13T10:17:55.057Z,978.6
2022-12-13T10:19:54.745Z,978.6
2022-12-13T10:21:56.487Z,978.6
2022-12-13T10:24:23.973Z,978.6
2022-12-13T10:26:02.712Z,978.6
2022-12-13T10:28:01.030Z,978.5
2022-12-13T10:30:02.607Z,978.5
2022-12-13T10:32:04.029Z,978.5
2022-12-13T10:34:05.722Z,978.5
2022-12-13T10:36:07.543Z,978.5
2022-12-13T10:38:08.711Z,978.4
2022-12-13T10:40:10.701Z,978.3
2022-12-13T10:42:12.203Z,978.4
2022-12-13T10:44:13.817Z,978.3
2022-12-13T10:46:15.831Z,978.4
2022-12-13T10:48:17.301Z,978.3
2022-12-13T10:50:18.302Z,978.4
2022-12-13T10:52:31.200Z,978.2
2022-12-13T10:56:23.790Z,978.3
2022-12-13T10:58:24.641Z,978.3
2022-12-13T11:00:26.245Z,978.2
2022-12-13T11:02:27.513Z,978.2
2022-12-13T11:04:29.198Z,978.1
2022-12-13T11:07:14.248Z,978.2
2022-12-13T11:09:22.719Z,978.2
2022-12-13T11:11:17.643Z,978.1
2022-12-13T11:13:19.291Z,978.1
2022-12-13T11:15:30.282Z,978
2022-12-13T11:17:22.911Z,977.9
2022-12-13T11:19:25.358Z,977.8
2022-12-13T11:21:26.409Z,977.9
2022-12-13T11:23:28.183Z,977.9
2022-12-13T11:25:29.563Z,977.8
2022-12-13T11:27:30.908Z,977.9
2022-12-13T11:29:32.765Z,977.8
2022-12-13T11:33:36.234Z,977.7
2022-12-13T11:35:37.468Z,977.7
2022-12-13T11:37:38.529Z,977.6
2022-12-13T11:39:40.312Z,977.7
2022-12-13T11:41:42.661Z,977.7
2022-12-13T11:43:44.570Z,977.7
2022-12-13T11:45:46.024Z,977.7
2022-12-13T11:47:47.381Z,977.6
2022-12-13T11:49:48.431Z,977.5
2022-12-13T11:51:49.871Z,977.4
2022-12-13T11:53:51.749Z,977.4
2022-12-13T11:55:53.557Z,977.4
2022-12-13T11:57:55.218Z,977.4
2022-12-13T12:00:01.911Z,977.4
2022-12-13T12:02:04.744Z,977.4
2022-12-13T12:03:59.477Z,977.4
2022-12-13T12:06:00.571Z,977.5
2022-12-13T12:10:03.970Z,977.4
2022-12-13T12:12:05.120Z,977.4
2022-12-13T12:14:06.365Z,977.4
2022-12-13T12:16:07.902Z,977.4
2022-12-13T12:18:09.047Z,977.3
2022-12-13T12:20:10.494Z,977.4
2022-12-13T12:22:14.410Z,977.3
2022-12-13T12:24:12.676Z,977.3
2022-12-13T12:26:14.026Z,977.3
2022-12-13T12:28:15.278Z,977.4
2022-12-13T12:30:22.422Z,977.3
2022-12-13T12:32:18.594Z,977.4
2022-12-13T12:34:27.390Z,977.5
2022-12-13T12:36:20.853Z,977.4
2022-12-13T12:38:23.047Z,977.4
2022-12-13T12:40:23.725Z,977.3
2022-12-13T12:42:24.956Z,977.3
2022-12-13T12:44:30.381Z,977.3
2022-12-13T12:46:27.901Z,977.3
2022-12-13T12:48:50.776Z,977.3
2022-12-13T12:50:30.833Z,977.2
2022-12-13T12:52:31.800Z,977.3
2022-12-13T12:54:33.687Z,977.3
2022-12-13T12:58:36.265Z,977.3
2022-12-13T13:00:37.704Z,977.1
2022-12-13T13:02:39.078Z,977.3
2022-12-13T13:04:40.472Z,977.2
2022-12-13T13:06:41.586Z,977.1
2022-12-13T13:08:42.846Z,977
2022-12-13T13:10:49.992Z,977.1
2022-12-13T13:12:47.168Z,977.1
2022-12-13T13:14:48.558Z,977.1
2022-12-13T13:16:49.755Z,977.1
2022-12-13T13:18:51.299Z,977.2
2022-12-13T13:20:52.545Z,977.2
2022-12-13T13:23:10.791Z,977.2
2022-12-13T13:24:56.459Z,977.2
2022-12-13T13:26:58.086Z,977.1
2022-12-13T13:28:59.735Z,977.1
2022-12-13T13:31:00.989Z,977.1
2022-12-13T13:33:02.903Z,977.1
2022-12-13T13:35:04.634Z,977.2
2022-12-13T13:37:05.958Z,977
2022-12-13T13:41:09.886Z,977.1
2022-12-13T13:43:11.794Z,977.2
2022-12-13T13:45:13.005Z,977.2
2022-12-13T13:47:14.665Z,977.3
2022-12-13T13:49:15.820Z,977.4
2022-12-13T13:51:17.451Z,977.4
2022-12-13T13:53:20.064Z,977.5
2022-12-13T13:55:20.986Z,977.5
2022-12-13T13:57:25.240Z,977.4
2022-12-13T13:59:24.052Z,977.4
2022-12-13T14:01:25.239Z,977.4
2022-12-13T14:03:32.650Z,977.5
2022-12-13T14:05:28.573Z,977.4
2022-12-13T14:07:29.845Z,977.4
2022-12-13T14:09:31.684Z,977.4
2022-12-13T14:11:32.827Z,977.4
2022-12-13T14:13:35.961Z,977.4
2022-12-13T14:15:35.907Z,977.4
2022-12-13T14:17:37.640Z,977.4
2022-12-13T14:19:39.057Z,977.4
2022-12-13T14:21:40.642Z,977.4
2022-12-13T14:23:42.368Z,977.3
2022-12-13T14:25:50.867Z,977.2
2022-12-13T14:27:45.219Z,977.3
2022-12-13T14:29:48.155Z,977.1
2022-12-13T14:31:48.733Z,977.2
2022-12-13T14:33:50.372Z,977.1
2022-12-13T14:35:51.960Z,977.2
2022-12-13T14:39:54.419Z,977.2
2022-12-13T14:41:56.350Z,977.2
2022-12-13T14:43:57.490Z,977.2
2022-12-13T14:45:59.018Z,977.3
2022-12-13T14:48:00.388Z,977.2
2022-12-13T14:50:02.256Z,977.3
2022-12-13T14:52:03.821Z,977.3
2022-12-13T14:54:05.891Z,977.4
2022-12-13T14:56:07.142Z,977.4
2022-12-13T14:58:08.870Z,977.4
2022-12-13T15:00:10.505Z,977.5
2022-12-13T15:02:12.236Z,977.3
2022-12-13T15:04:13.740Z,977.4
2022-12-13T15:06:15.652Z,977.4
2022-12-13T15:08:16.826Z,977.4
2022-12-13T15:10:18.693Z,977.4
2022-12-13T15:12:25.042Z,977.3
2022-12-13T15:14:21.756Z,977.4
2022-12-13T15:16:23.206Z,977.4
2022-12-13T15:18:25.101Z,977.3
2022-12-13T15:22:29.251Z,977.2
2022-12-13T15:24:30.410Z,977.3
2022-12-13T15:26:32.085Z,977.3
2022-12-13T15:28:33.587Z,977.3
2022-12-13T15:30:34.817Z,977.3
2022-12-13T15:32:36.734Z,977.3
2022-12-13T15:34:38.084Z,977.3
2022-12-13T15:36:39.578Z,977.3
2022-12-13T15:38:41.507Z,977.3
2022-12-13T15:40:42.918Z,977.3
2022-12-13T15:42:44.277Z,977.3
2022-12-13T15:44:48.021Z,977.3
2022-12-13T15:46:47.613Z,977.3
2022-12-13T15:48:49.017Z,977.2
2022-12-13T15:50:50.346Z,977.2
2022-12-13T15:52:51.705Z,977.2
2022-12-13T15:54:53.123Z,977.1
2022-12-13T15:56:54.308Z,977.1
2022-12-13T15:58:56.349Z,977.1
2022-12-13T16:00:57.559Z,977
2022-12-13T16:02:59.017Z,977.1
2022-12-13T16:05:00.686Z,977
2022-12-13T16:07:02.041Z,977
2022-12-13T16:09:03.867Z,977
2022-12-13T16:11:05.899Z,976.9
2022-12-13T16:13:07.796Z,976.8
2022-12-13T16:15:09.815Z,976.8
2022-12-13T16:17:10.644Z,976.7
2022-12-13T16:19:12.476Z,976.7
2022-12-13T16:21:13.709Z,976.7
2022-12-13T16:23:26.560Z,976.7
2022-12-13T16:25:17.694Z,976.6
2022-12-13T16:27:19.838Z,976.7
2022-12-13T16:29:21.456Z,976.6
2022-12-13T16:31:22.644Z,976.7
2022-12-13T16:33:26.366Z,976.6
2022-12-13T16:35:26.156Z,976.6
2022-12-13T16:37:27.699Z,976.6
2022-12-13T16:39:29.368Z,976.6
2022-12-13T16:41:31.449Z,976.6
2022-12-13T16:43:41.521Z,976.6
2022-12-13T16:45:42.174Z,976.7
2022-12-13T16:47:44.608Z,976.7
2022-12-13T16:49:38.365Z,976.7
2022-12-13T16:51:43.672Z,976.7
2022-12-13T16:53:41.863Z,976.7
2022-12-13T16:55:43.493Z,976.7
2022-12-13T16:57:45.364Z,976.6
2022-12-13T16:59:47.503Z,976.5
2022-12-13T17:01:49.233Z,976.4
2022-12-13T17:03:51.035Z,976.5
2022-12-13T17:05:58.506Z,976.4
2022-12-13T17:07:55.184Z,976.3
2022-12-13T17:09:56.955Z,976.3
2022-12-13T17:11:58.331Z,976.2
2022-12-13T17:13:59.906Z,976.3
2022-12-13T17:16:01.384Z,976.3
2022-12-13T17:18:02.777Z,976.2
2022-12-13T17:20:04.886Z,976.2
2022-12-13T17:22:06.928Z,976.2
2022-12-13T17:24:08.385Z,976.1
2022-12-13T17:26:09.773Z,976.2
2022-12-13T17:30:12.615Z,976.3
2022-12-13T17:32:14.317Z,976.3
2022-12-13T17:34:16.062Z,976.4
2022-12-13T17:36:17.556Z,976.4
2022-12-13T17:38:18.803Z,976.3
2022-12-13T17:40:20.470Z,976.3
2022-12-13T17:42:22.147Z,976.3
2022-12-13T17:44:24.050Z,976.4
2022-12-13T17:46:25.871Z,976.4
2022-12-13T17:48:27.482Z,976.4
2022-12-13T17:50:28.293Z,976.4
2022-12-13T17:51:12.321Z,976.4
2022-12-13T17:53:13.793Z,976.4
2022-12-13T17:55:18.426Z,976.3
2022-12-13T17:57:16.685Z,976.4
2022-12-13T17:59:18.224Z,976.3
2022-12-13T18:01:19.490Z,976.4
2022-12-13T18:03:21.300Z,976.4
2022-12-13T18:05:22.670Z,976.3
2022-12-13T18:07:24.094Z,976.4
2022-12-13T18:09:25.491Z,976.3
2022-12-13T18:11:34.249Z,976.4
2022-12-13T18:13:29.373Z,976.4
2022-12-13T18:15:30.860Z,976.4
2022-12-13T18:18:01.549Z,976.5
2022-12-13T18:19:34.827Z,976.5
2022-12-13T18:21:37.254Z,976.5
2022-12-13T18:23:38.230Z,976.4
2022-12-13T18:25:39.918Z,976.4
2022-12-13T18:27:41.713Z,976.4
2022-12-13T18:29:47.983Z,976.3
2022-12-13T18:31:45.259Z,976.3
2022-12-13T18:33:47.723Z,976.2
2022-12-13T18:35:48.617Z,976.2
2022-12-13T18:37:49.943Z,976.1
2022-12-13T18:39:54.673Z,976.1
2022-12-13T18:41:52.783Z,976
2022-12-13T18:43:54.723Z,976.1
2022-12-13T18:45:56.739Z,976.2
2022-12-13T18:47:57.909Z,976.2
2022-12-13T18:49:59.962Z,976.2
2022-12-13T18:52:01.110Z,976.2
2022-12-13T18:54:02.999Z,976.2
2022-12-13T18:56:05.011Z,976.2
2022-12-13T18:58:06.679Z,976.2
2022-12-13T19:00:08.550Z,976.2
2022-12-13T19:02:09.894Z,976.2
2022-12-13T19:04:11.093Z,976
2022-12-13T19:06:13.045Z,976
2022-12-13T19:08:14.454Z,976.1
2022-12-13T19:10:16.236Z,976
2022-12-13T19:12:18.109Z,976
2022-12-13T19:14:23.792Z,975.8
2022-12-13T19:16:21.818Z,975.9
2022-12-13T19:18:23.723Z,975.8
2022-12-13T19:20:25.804Z,975.6
2022-12-13T19:22:27.030Z,975.7
2022-12-13T19:24:28.841Z,975.4
2022-12-13T19:26:30.754Z,975.4
2022-12-13T19:28:32.850Z,975.5
2022-12-13T19:30:34.292Z,975.4
2022-12-13T19:32:36.137Z,975.4
2022-12-13T19:34:37.603Z,975.4
2022-12-13T19:36:39.740Z,975.5
2022-12-13T19:38:41.611Z,975.5
2022-12-13T19:40:42.763Z,975.5
2022-12-13T19:42:44.590Z,975.5
2022-12-13T19:44:45.731Z,975.4
2022-12-13T19:48:48.843Z,975.5
2022-12-13T19:50:50.225Z,975.3
2022-12-13T19:52:52.069Z,975.3
2022-12-13T19:54:53.620Z,975.3
2022-12-13T19:58:57.212Z,975.2
2022-12-13T20:00:58.926Z,975.1
2022-12-13T20:03:00.269Z,975.1
2022-12-13T20:05:01.484Z,975.1
2022-12-13T20:07:02.810Z,975.2
2022-12-13T20:09:04.648Z,975.2
2022-12-13T20:11:06.517Z,975.4
2022-12-13T20:13:07.993Z,975.4
2022-12-13T20:15:09.873Z,975.4
2022-12-13T20:17:11.647Z,975.5
2022-12-13T20:19:13.851Z,975.2
2022-12-13T20:21:15.904Z,975.1
2022-12-13T20:23:17.412Z,975
2022-12-13T20:25:19.056Z,975
2022-12-13T20:27:21.001Z,975
2022-12-13T20:31:24.844Z,975
2022-12-13T20:33:26.369Z,974.9
2022-12-13T20:35:27.711Z,975
2022-12-13T20:37:29.404Z,974.9
2022-12-13T20:41:31.962Z,975
2022-12-13T20:43:33.200Z,974.8
2022-12-13T20:45:34.902Z,974.8
2022-12-13T20:47:38.047Z,974.7
2022-12-13T20:49:38.988Z,974.6
2022-12-13T20:51:40.561Z,974.6
2022-12-13T20:53:41.975Z,974.6
2022-12-13T20:55:43.844Z,974.6
2022-12-13T20:57:45.340Z,974.6
2022-12-13T20:59:47.063Z,974.6
2022-12-13T21:01:49.215Z,974.5
2022-12-13T21:03:50.376Z,974.4
2022-12-13T21:05:51.599Z,974.4
2022-12-13T21:07:53.617Z,974.7
2022-12-13T21:09:55.157Z,974.5
2022-12-13T21:14:02.400Z,974.6
2022-12-13T21:16:00.727Z,974.5
2022-12-13T21:18:02.789Z,974.5
2022-12-13T21:20:04.570Z,974.6
2022-12-13T21:24:08.696Z,974.6
2022-12-13T21:26:10.022Z,974.5
2022-12-13T21:28:11.511Z,974.5
2022-12-13T21:30:12.621Z,974.5
2022-12-13T21:32:14.278Z,974.3
2022-12-13T21:34:15.723Z,974.4
2022-12-13T21:36:17.706Z,974.4
2022-12-13T21:38:19.070Z,974.5
2022-12-13T21:40:20.204Z,974.4
2022-12-13T21:42:22.308Z,974.4
2022-12-13T21:44:24.577Z,974.4
2022-12-13T21:46:41.308Z,974.4
2022-12-13T21:48:28.451Z,974.3
2022-12-13T21:50:29.623Z,974.3
2022-12-13T21:52:31.723Z,974.3
2022-12-13T21:56:35.166Z,974.2
2022-12-13T21:58:36.574Z,974.2
2022-12-13T22:00:38.030Z,974.1
2022-12-13T22:02:39.448Z,974.1
2022-12-13T22:06:42.433Z,973.8
2022-12-13T22:08:43.877Z,974.1
2022-12-13T22:10:45.404Z,974.2
2022-12-13T22:12:46.946Z,973.9
2022-12-13T22:14:48.738Z,973.9
2022-12-13T22:16:50.776Z,973.8
2022-12-13T22:18:51.969Z,974
2022-12-13T22:20:53.846Z,974
2022-12-13T22:22:55.304Z,973.9
2022-12-13T22:24:57.064Z,973.9
2022-12-13T22:26:58.563Z,974
2022-12-13T22:29:00.298Z,974.1
2022-12-13T22:31:02.334Z,974
2022-12-13T22:33:04.392Z,973.9
2022-12-13T22:35:05.953Z,973.9
2022-12-13T22:39:08.976Z,973.9
2022-12-13T22:41:11.091Z,973.8
2022-12-13T22:43:16.097Z,973.7
2022-12-13T22:45:14.729Z,973.6
2022-12-13T22:47:16.197Z,973.6
2022-12-13T22:49:18.021Z,973.3
2022-12-13T22:51:19.862Z,973.3
2022-12-13T22:53:21.064Z,973.3
2022-12-13T22:55:22.634Z,973.3
2022-12-13T22:57:24.397Z,973.3
2022-12-13T22:59:26.349Z,973.3
2022-12-13T23:01:28.284Z,973.4
2022-12-13T23:03:29.388Z,973.4
2022-12-13T23:05:30.648Z,973.5
2022-12-13T23:07:31.856Z,973.4
2022-12-13T23:09:33.616Z,973.2
2022-12-13T23:11:35.048Z,973.3
2022-12-13T23:13:36.484Z,973.3
2022-12-13T23:15:38.532Z,973.2
2022-12-13T23:17:39.934Z,973.3
2022-12-13T23:19:49.204Z,973.2
2022-12-13T23:21:43.495Z,973.1
2022-12-13T23:23:44.629Z,973.1
2022-12-13T23:25:48.906Z,973.1
2022-12-13T23:27:48.082Z,973
2022-12-13T23:31:51.577Z,972.9
2022-12-13T23:33:53.041Z,973
2022-12-13T23:35:54.366Z,972.9
2022-12-13T23:37:56.353Z,973
2022-12-13T23:39:58.245Z,972.9
2022-12-13T23:41:59.916Z,973
2022-12-13T23:44:01.381Z,973.1
2022-12-13T23:46:03.169Z,973
2022-12-13T23:48:04.922Z,973
2022-12-13T23:50:06.845Z,972.9
2022-12-13T23:52:08.171Z,973
2022-12-13T23:54:09.725Z,972.9
2022-12-13T23:56:10.921Z,972.9
2022-12-13T23:58:12.335Z,972.9
